createdAt,value
2023-03-26T00:03:56.076Z,815.00
2023-03-26T00:07:56.085Z,791.00
2023-03-26T00:11:56.116Z,875.00
2023-03-26T00:15:56.285Z,951.00
2023-03-26T00:19:56.121Z,958.00
2023-03-26T00:23:56.058Z,827.00
2023-03-26T00:27:56.115Z,961.00
2023-03-26T00:31:56.067Z,908.00
2023-03-26T00:35:56.307Z,853.00
2023-03-26T00:39:56.055Z,1005.00
2023-03-26T00:43:57.002Z,1122.00
2023-03-26T00:47:55.962Z,1253.00
2023-03-26T00:51:55.877Z,1317.00
2023-03-26T00:55:55.945Z,1352.00
2023-03-26T00:59:55.779Z,1418.00
2023-03-26T01:04:07.379Z,1392.00
2023-03-26T01:07:56.595Z,1413.00
2023-03-26T01:11:55.566Z,1496.00
2023-03-26T01:15:55.593Z,1536.00
2023-03-26T01:19:55.395Z,1474.00
2023-03-26T01:23:55.336Z,1460.00
2023-03-26T01:27:55.319Z,1340.00
2023-03-26T01:31:55.248Z,1326.00
2023-03-26T01:35:55.388Z,1231.00
2023-03-26T01:39:55.074Z,1148.00
2023-03-26T01:43:55.099Z,1154.00
2023-03-26T01:47:55.143Z,1164.00
2023-03-26T01:51:55.157Z,1089.00
2023-03-26T01:55:55.270Z,1093.00
2023-03-26T01:59:55.172Z,1074.00
2023-03-26T02:03:55.187Z,1077.00
2023-03-26T02:07:55.205Z,1060.00
2023-03-26T02:11:55.263Z,1079.00
2023-03-26T02:15:55.472Z,1149.00
2023-03-26T02:19:55.319Z,1218.00
2023-03-26T02:23:55.336Z,1282.00
2023-03-26T02:27:55.382Z,1383.00
2023-03-26T02:31:55.508Z,1457.00
2023-03-26T02:35:55.594Z,1565.00
2023-03-26T02:39:55.526Z,1630.00
2023-03-26T02:43:55.549Z,1676.00
2023-03-26T02:47:55.653Z,1697.00
2023-03-26T02:51:55.687Z,1732.00
2023-03-26T02:55:55.958Z,1716.00
2023-03-26T02:59:55.836Z,1744.00
2023-03-26T03:03:55.970Z,1807.00
2023-03-26T03:07:56.021Z,1817.00
2023-03-26T03:11:56.060Z,1812.00
2023-03-26T03:15:56.256Z,1826.00
2023-03-26T03:19:56.215Z,1823.00
2023-03-26T03:23:56.363Z,1836.00
2023-03-26T03:27:56.266Z,1869.00
2023-03-26T03:31:56.231Z,1887.00
2023-03-26T03:35:56.459Z,1903.00
2023-03-26T03:39:56.175Z,1915.00
2023-03-26T03:43:56.097Z,1908.00
2023-03-26T03:47:56.168Z,1861.00
2023-03-26T03:51:56.015Z,1869.00
2023-03-26T03:55:56.148Z,1847.00
2023-03-26T03:59:55.883Z,1922.00
2023-03-26T04:03:56.002Z,1891.00
2023-03-26T04:07:55.881Z,1915.00
2023-03-26T04:11:55.990Z,1972.00
2023-03-26T04:15:56.430Z,1982.00
2023-03-26T04:19:56.301Z,1998.00
2023-03-26T04:23:56.409Z,1958.00
2023-03-26T04:27:56.619Z,1979.00
2023-03-26T04:31:56.708Z,1980.00
2023-03-26T04:35:57.180Z,2000.00
2023-03-26T04:39:57.059Z,1951.00
2023-03-26T04:43:57.249Z,1985.00
2023-03-26T04:47:57.331Z,1969.00
2023-03-26T04:51:57.520Z,1971.00
2023-03-26T04:55:57.660Z,2000.00
2023-03-26T04:59:57.855Z,2012.00
2023-03-26T05:03:58.030Z,1921.00
2023-03-26T05:07:58.196Z,1853.00
2023-03-26T05:11:58.362Z,1833.00
2023-03-26T05:15:58.487Z,1902.00
2023-03-26T05:19:58.671Z,1890.00
2023-03-26T05:23:58.812Z,1935.00
2023-03-26T05:27:58.965Z,1937.00
2023-03-26T05:31:59.095Z,1982.00
2023-03-26T05:35:59.239Z,2015.00
2023-03-26T05:39:59.381Z,2068.00
2023-03-26T05:43:59.546Z,2112.00
2023-03-26T05:47:59.679Z,2109.00
2023-03-26T05:51:59.839Z,2098.00
2023-03-26T05:56:00.041Z,2119.00
2023-03-26T06:00:00.196Z,2171.00
2023-03-26T06:04:00.421Z,2117.00
2023-03-26T06:08:00.407Z,2105.00
2023-03-26T06:12:00.535Z,2040.00
2023-03-26T06:16:00.713Z,2029.00
2023-03-26T06:20:00.867Z,1958.00
2023-03-26T06:24:01.019Z,1949.00
2023-03-26T06:28:01.173Z,1950.00
2023-03-26T06:32:12.375Z,1950.00
2023-03-26T06:36:02.324Z,1997.00
2023-03-26T06:40:01.272Z,1956.00
2023-03-26T06:44:01.201Z,1979.00
2023-03-26T06:48:01.489Z,1954.00
2023-03-26T06:52:01.520Z,1942.00
2023-03-26T06:56:01.715Z,1851.00
2023-03-26T07:00:01.873Z,1831.00
2023-03-26T07:04:02.082Z,1857.00
2023-03-26T07:08:02.139Z,1777.00
2023-03-26T07:12:02.311Z,1775.00
2023-03-26T07:16:02.475Z,1748.00
2023-03-26T07:20:02.568Z,1685.00
2023-03-26T07:24:02.670Z,1684.00
2023-03-26T07:28:02.800Z,1665.00
2023-03-26T07:32:02.882Z,1644.00
2023-03-26T07:36:02.924Z,1597.00
2023-03-26T07:40:03.014Z,1451.00
2023-03-26T07:44:03.112Z,1360.00
2023-03-26T07:48:03.237Z,1264.00
2023-03-26T07:52:03.305Z,1185.00
2023-03-26T07:56:03.407Z,1118.00
2023-03-26T08:00:03.512Z,1076.00
2023-03-26T08:04:23.632Z,1044.00
2023-03-26T08:08:04.493Z,1015.00
2023-03-26T08:12:03.416Z,1018.00
2023-03-26T08:16:03.353Z,1083.00
2023-03-26T08:20:03.280Z,965.00
2023-03-26T08:24:03.232Z,999.00
2023-03-26T08:28:03.228Z,1023.00
2023-03-26T08:32:03.324Z,992.00
2023-03-26T08:36:03.361Z,946.00
2023-03-26T08:40:03.461Z,847.00
2023-03-26T08:44:03.532Z,867.00
2023-03-26T08:48:03.555Z,902.00
2023-03-26T08:52:03.511Z,858.00
2023-03-26T08:56:03.485Z,892.00
2023-03-26T09:00:03.498Z,792.00
2023-03-26T09:04:03.535Z,822.00
2023-03-26T09:08:03.469Z,664.00
2023-03-26T09:12:03.421Z,678.00
2023-03-26T09:16:03.480Z,654.00
2023-03-26T09:20:03.414Z,614.00
2023-03-26T09:24:03.356Z,617.00
2023-03-26T09:28:03.396Z,587.00
2023-03-26T09:32:03.430Z,596.00
2023-03-26T09:36:03.465Z,573.00
2023-03-26T09:40:03.477Z,597.00
2023-03-26T09:44:03.430Z,584.00
2023-03-26T09:48:03.559Z,624.00
2023-03-26T09:52:03.424Z,601.00
2023-03-26T09:56:03.476Z,579.00
2023-03-26T10:00:03.485Z,563.00
2023-03-26T10:04:03.485Z,600.00
2023-03-26T10:08:03.517Z,578.00
2023-03-26T10:12:03.450Z,660.00
2023-03-26T10:16:03.428Z,613.00
2023-03-26T10:20:03.353Z,588.00
2023-03-26T10:24:03.363Z,672.00
2023-03-26T10:28:03.317Z,577.00
2023-03-26T10:32:03.327Z,652.00
2023-03-26T10:36:03.346Z,612.00
2023-03-26T10:40:03.273Z,652.00
2023-03-26T10:44:08.374Z,770.00
2023-03-26T10:48:04.225Z,650.00
2023-03-26T10:52:03.089Z,855.00
2023-03-26T10:56:03.083Z,732.00
2023-03-26T11:00:02.974Z,764.00
2023-03-26T11:04:02.904Z,824.00
2023-03-26T11:08:02.847Z,743.00
2023-03-26T11:12:02.819Z,680.00
2023-03-26T11:16:03.729Z,680.00
2023-03-26T11:20:02.628Z,740.00
2023-03-26T11:24:05.114Z,863.00
2023-03-26T11:28:02.522Z,810.00
2023-03-26T11:32:02.478Z,828.00
2023-03-26T11:36:02.442Z,1006.00
2023-03-26T11:40:02.371Z,997.00
2023-03-26T11:44:02.268Z,761.00
2023-03-26T11:48:02.174Z,707.00
2023-03-26T11:52:02.065Z,968.00
2023-03-26T11:56:02.018Z,1111.00
2023-03-26T12:00:02.527Z,1343.00
2023-03-26T12:04:01.952Z,1355.00
2023-03-26T12:08:01.875Z,1575.00
2023-03-26T12:12:01.806Z,1495.00
2023-03-26T12:16:01.744Z,1519.00
2023-03-26T12:20:01.651Z,1174.00
2023-03-26T12:24:01.612Z,1217.00
2023-03-26T12:28:01.556Z,1255.00
2023-03-26T12:32:01.625Z,1187.00
2023-03-26T12:36:01.480Z,1186.00
2023-03-26T12:40:08.609Z,934.00
2023-03-26T12:44:53.965Z,1053.00
2023-03-26T12:48:03.709Z,766.00
2023-03-26T12:52:01.177Z,823.00
2023-03-26T12:56:01.553Z,629.00
2023-03-26T13:00:01.095Z,752.00
2023-03-26T13:04:00.940Z,596.00
2023-03-26T13:08:00.878Z,626.00
2023-03-26T13:12:00.812Z,613.00
2023-03-26T13:16:00.738Z,575.00
2023-03-26T13:20:00.784Z,617.00
2023-03-26T13:24:00.665Z,616.00
2023-03-26T13:28:00.550Z,570.00
2023-03-26T13:32:00.516Z,549.00
2023-03-26T13:36:14.301Z,580.00
2023-03-26T13:40:01.348Z,496.00
2023-03-26T13:44:00.263Z,525.00
2023-03-26T13:48:00.282Z,517.00
2023-03-26T13:52:00.175Z,504.00
2023-03-26T13:56:00.127Z,531.00
2023-03-26T14:00:00.100Z,519.00
2023-03-26T14:04:00.108Z,517.00
2023-03-26T14:07:59.955Z,519.00
2023-03-26T14:11:59.966Z,516.00
2023-03-26T14:16:00.017Z,538.00
2023-03-26T14:19:59.986Z,536.00
2023-03-26T14:24:00.021Z,552.00
2023-03-26T14:28:00.047Z,559.00
2023-03-26T14:32:00.069Z,568.00
2023-03-26T14:36:00.146Z,593.00
2023-03-26T14:40:00.145Z,617.00
2023-03-26T14:44:00.163Z,612.00
2023-03-26T14:48:00.368Z,623.00
2023-03-26T14:52:00.249Z,643.00
2023-03-26T14:56:00.339Z,646.00
2023-03-26T15:00:00.418Z,656.00
2023-03-26T15:04:00.500Z,656.00
2023-03-26T15:08:00.578Z,650.00
2023-03-26T15:12:12.512Z,713.00
2023-03-26T15:16:01.639Z,732.00
2023-03-26T15:20:00.566Z,707.00
2023-03-26T15:24:00.529Z,746.00
2023-03-26T15:28:00.460Z,732.00
2023-03-26T15:32:00.492Z,807.00
2023-03-26T15:36:00.578Z,829.00
2023-03-26T15:40:00.665Z,1005.00
2023-03-26T15:48:00.643Z,1092.00
2023-03-26T15:52:00.574Z,1076.00
2023-03-26T15:56:00.513Z,935.00
2023-03-26T16:00:00.458Z,962.00
2023-03-26T16:04:00.368Z,978.00
2023-03-26T16:08:00.290Z,985.00
2023-03-26T16:12:00.297Z,1136.00
2023-03-26T16:16:00.253Z,1215.00
2023-03-26T16:20:00.117Z,1240.00
2023-03-26T16:24:00.124Z,1245.00
2023-03-26T16:28:00.027Z,1149.00
2023-03-26T16:31:59.980Z,1064.00
2023-03-26T16:35:59.910Z,1076.00
2023-03-26T16:39:59.811Z,1015.00
2023-03-26T16:43:59.763Z,1043.00
2023-03-26T16:47:59.783Z,1079.00
2023-03-26T16:51:59.708Z,1059.00
2023-03-26T16:55:59.794Z,1049.00
2023-03-26T17:00:07.833Z,1135.00
2023-03-26T17:04:00.870Z,1129.00
2023-03-26T17:07:59.720Z,1125.00
2023-03-26T17:11:59.678Z,1166.00
2023-03-26T17:15:59.671Z,1252.00
2023-03-26T17:19:59.749Z,1295.00
2023-03-26T17:23:59.884Z,1300.00
2023-03-26T17:27:59.980Z,1358.00
2023-03-26T17:32:00.120Z,1341.00
2023-03-26T17:36:00.304Z,1268.00
2023-03-26T17:40:00.256Z,1263.00
2023-03-26T17:44:00.394Z,1289.00
2023-03-26T17:48:00.582Z,1222.00
2023-03-26T17:52:00.677Z,1304.00
2023-03-26T17:56:00.786Z,1266.00
2023-03-26T18:00:00.945Z,1238.00
2023-03-26T18:04:01.065Z,1220.00
2023-03-26T18:08:01.204Z,1161.00
2023-03-26T18:12:01.351Z,1140.00
2023-03-26T18:16:01.533Z,1161.00
2023-03-26T18:20:01.618Z,1156.00
2023-03-26T18:24:01.839Z,1140.00
2023-03-26T18:28:01.996Z,1202.00
2023-03-26T18:32:02.208Z,1249.00
2023-03-26T18:36:02.251Z,1295.00
2023-03-26T18:40:02.451Z,1261.00
2023-03-26T18:44:02.520Z,1202.00
2023-03-26T18:48:02.743Z,1148.00
2023-03-26T18:52:02.888Z,1216.00
2023-03-26T18:56:02.779Z,1187.00
2023-03-26T19:00:02.721Z,1166.00
2023-03-26T19:04:02.623Z,1195.00
2023-03-26T19:08:02.568Z,1137.00
2023-03-26T19:12:02.491Z,1088.00
2023-03-26T19:16:02.405Z,1134.00
2023-03-26T19:20:02.321Z,1151.00
2023-03-26T19:24:02.250Z,1269.00
2023-03-26T19:28:02.193Z,1249.00
2023-03-26T19:32:02.067Z,1248.00
2023-03-26T19:36:02.042Z,1239.00
2023-03-26T19:40:01.914Z,1231.00
2023-03-26T19:44:01.993Z,1272.00
2023-03-26T19:48:14.321Z,1261.00
2023-03-26T19:52:03.040Z,1182.00
2023-03-26T19:56:02.485Z,1076.00
2023-03-26T20:00:01.930Z,1171.00
2023-03-26T20:04:02.044Z,1054.00
2023-03-26T20:08:02.121Z,1078.00
2023-03-26T20:12:02.288Z,1067.00
2023-03-26T20:16:06.017Z,1156.00
2023-03-26T20:20:02.387Z,1124.00
2023-03-26T20:24:02.269Z,1142.00
2023-03-26T20:28:02.241Z,1180.00
2023-03-26T20:32:02.225Z,1146.00
2023-03-26T20:36:02.223Z,1155.00
2023-03-26T20:40:02.017Z,1195.00
2023-03-26T20:44:02.090Z,1228.00
2023-03-26T20:48:02.272Z,1229.00
2023-03-26T20:52:02.438Z,1233.00
2023-03-26T20:56:02.617Z,1182.00
2023-03-26T21:00:02.765Z,1061.00
2023-03-26T21:04:02.943Z,997.00
2023-03-26T21:08:03.126Z,1056.00
2023-03-26T21:12:03.357Z,1103.00
2023-03-26T21:16:03.339Z,1144.00
2023-03-26T21:20:03.175Z,1123.00
2023-03-26T21:24:03.120Z,1097.00
2023-03-26T21:28:03.025Z,1126.00
2023-03-26T21:32:02.984Z,1069.00
2023-03-26T21:36:02.996Z,1144.00
2023-03-26T21:40:02.836Z,1107.00
2023-03-26T21:44:02.793Z,1177.00
2023-03-26T21:48:02.876Z,1221.00
2023-03-26T21:52:02.766Z,1201.00
2023-03-26T21:56:02.699Z,1219.00
2023-03-26T22:00:02.672Z,1201.00
2023-03-26T22:04:02.668Z,1248.00
2023-03-26T22:08:02.526Z,1157.00
2023-03-26T22:12:02.479Z,1144.00
2023-03-26T22:16:02.432Z,1149.00
2023-03-26T22:20:02.338Z,1159.00
2023-03-26T22:24:02.250Z,1216.00
2023-03-26T22:28:02.188Z,1244.00
2023-03-26T22:32:02.083Z,1232.00
2023-03-26T22:36:02.155Z,1179.00
2023-03-26T22:40:01.988Z,1154.00
2023-03-26T22:44:12.877Z,1183.00
2023-03-26T22:48:04.636Z,1089.00
2023-03-26T22:52:02.015Z,1074.00
2023-03-26T22:56:01.947Z,1103.00
2023-03-26T23:00:01.933Z,1014.00
2023-03-26T23:04:01.878Z,1010.00
2023-03-26T23:08:01.755Z,979.00
2023-03-26T23:12:01.694Z,991.00
2023-03-26T23:16:01.680Z,1008.00
2023-03-26T23:20:01.603Z,987.00
2023-03-26T23:24:01.548Z,948.00
2023-03-26T23:28:01.474Z,957.00
2023-03-26T23:32:01.359Z,1015.00
2023-03-26T23:36:01.421Z,1000.00
2023-03-26T23:40:01.393Z,998.00
2023-03-26T23:44:01.265Z,1007.00
2023-03-26T23:48:01.237Z,1155.00
2023-03-26T23:52:01.150Z,1133.00
2023-03-26T23:56:01.101Z,1093.00
